sensor_id;sensor_type;location;lat;lon;timestamp;pressure;altitude;pressure_sealevel;temperature;humidity
10510;BME280;5303;53.266;10.410;2023-05-29T00:01:20;101974.19;;;12.14;64.14
10510;BME280;5303;53.266;10.410;2023-05-29T00:03:46;101974.19;;;12.13;64.42
10510;BME280;5303;53.266;10.410;2023-05-29T00:06:12;101965.34;;;12.07;64.41
10510;BME280;5303;53.266;10.410;2023-05-29T00:08:38;101975.88;;;12.04;64.49
10510;BME280;5303;53.266;10.410;2023-05-29T00:11:10;101986.44;;;12.01;64.99
10510;BME280;5303;53.266;10.410;2023-05-29T00:13:35;101980.25;;;11.98;65.39
10510;BME280;5303;53.266;10.410;2023-05-29T00:16:01;101979.34;;;11.97;65.31
10510;BME280;5303;53.266;10.410;2023-05-29T00:18:26;101984.59;;;11.94;65.21
10510;BME280;5303;53.266;10.410;2023-05-29T00:20:52;101988.09;;;11.90;65.00
10510;BME280;5303;53.266;10.410;2023-05-29T00:23:18;101988.94;;;11.88;65.12
10510;BME280;5303;53.266;10.410;2023-05-29T00:25:43;101993.34;;;11.86;65.34
10510;BME280;5303;53.266;10.410;2023-05-29T00:28:09;101994.16;;;11.81;65.75
10510;BME280;5303;53.266;10.410;2023-05-29T00:30:35;101994.97;;;11.79;65.94
10510;BME280;5303;53.266;10.410;2023-05-29T00:33:00;101994.97;;;11.76;66.13
10510;BME280;5303;53.266;10.410;2023-05-29T00:35:25;101996.66;;;11.71;66.68
10510;BME280;5303;53.266;10.410;2023-05-29T00:37:50;102000.16;;;11.70;67.06
10510;BME280;5303;53.266;10.410;2023-05-29T00:40:16;102001.00;;;11.66;66.95
10510;BME280;5303;53.266;10.410;2023-05-29T00:42:41;101998.31;;;11.63;67.34
10510;BME280;5303;53.266;10.410;2023-05-29T00:45:07;102007.13;;;11.62;66.90
10510;BME280;5303;53.266;10.410;2023-05-29T00:47:33;102009.66;;;11.54;67.17
10510;BME280;5303;53.266;10.410;2023-05-29T00:49:58;102021.97;;;11.53;67.49
10510;BME280;5303;53.266;10.410;2023-05-29T00:52:25;102020.28;;;11.56;67.63
10510;BME280;5303;53.266;10.410;2023-05-29T00:54:51;102024.63;;;11.53;67.26
10510;BME280;5303;53.266;10.410;2023-05-29T00:57:17;102032.56;;;11.53;67.32
10510;BME280;5303;53.266;10.410;2023-05-29T00:59:45;102036.94;;;11.51;66.95
10510;BME280;5303;53.266;10.410;2023-05-29T01:02:11;102033.41;;;11.49;66.99
10510;BME280;5303;53.266;10.410;2023-05-29T01:04:37;102041.19;;;11.40;66.75
10510;BME280;5303;53.266;10.410;2023-05-29T01:07:03;102033.22;;;11.34;66.85
10510;BME280;5303;53.266;10.410;2023-05-29T01:09:30;102038.41;;;11.30;66.58
10510;BME280;5303;53.266;10.410;2023-05-29T01:12:16;102036.53;;;11.21;66.58
10510;BME280;5303;53.266;10.410;2023-05-29T01:20:52;102048.81;;;11.17;65.48
10510;BME280;5303;53.266;10.410;2023-05-29T01:28:52;102064.47;;;11.04;66.02
10510;BME280;5303;53.266;10.410;2023-05-29T01:31:26;102059.22;;;11.07;65.65
10510;BME280;5303;53.266;10.410;2023-05-29T01:33:56;102064.56;;;11.10;65.48
10510;BME280;5303;53.266;10.410;2023-05-29T01:36:23;102053.13;;;11.11;65.53
10510;BME280;5303;53.266;10.410;2023-05-29T01:38:50;102060.97;;;11.06;65.60
10510;BME280;5303;53.266;10.410;2023-05-29T01:41:16;102063.47;;;10.97;65.92
10510;BME280;5303;53.266;10.410;2023-05-29T01:43:43;102059.97;;;10.98;65.34
10510;BME280;5303;53.266;10.410;2023-05-29T01:46:10;102052.81;;;10.91;65.95
10510;BME280;5303;53.266;10.410;2023-05-29T01:48:36;102053.66;;;10.87;65.88
10510;BME280;5303;53.266;10.410;2023-05-29T01:51:01;102057.06;;;10.81;65.91
10510;BME280;5303;53.266;10.410;2023-05-29T01:53:26;102062.31;;;10.78;65.98
10510;BME280;5303;53.266;10.410;2023-05-29T01:55:52;102061.41;;;10.76;66.28
10510;BME280;5303;53.266;10.410;2023-05-29T01:58:18;102057.78;;;10.71;66.42
10510;BME280;5303;53.266;10.410;2023-05-29T02:00:45;102051.53;;;10.64;66.96
10510;BME280;5303;53.266;10.410;2023-05-29T02:03:10;102050.66;;;10.65;66.79
10510;BME280;5303;53.266;10.410;2023-05-29T02:05:36;102045.31;;;10.62;66.76
10510;BME280;5303;53.266;10.410;2023-05-29T02:08:01;102051.44;;;10.60;67.05
10510;BME280;5303;53.266;10.410;2023-05-29T02:10:26;102047.00;;;10.57;67.27
10510;BME280;5303;53.266;10.410;2023-05-29T02:12:52;102056.66;;;10.57;67.15
10510;BME280;5303;53.266;10.410;2023-05-29T02:15:17;102054.03;;;10.57;67.50
10510;BME280;5303;53.266;10.410;2023-05-29T02:17:42;102056.66;;;10.57;67.49
10510;BME280;5303;53.266;10.410;2023-05-29T02:20:09;102059.22;;;10.52;67.18
10510;BME280;5303;53.266;10.410;2023-05-29T02:22:36;102068.00;;;10.51;67.41
10510;BME280;5303;53.266;10.410;2023-05-29T02:25:01;102064.25;;;10.38;67.31
10510;BME280;5303;53.266;10.410;2023-05-29T02:27:26;102063.34;;;10.36;67.94
10510;BME280;5303;53.266;10.410;2023-05-29T02:29:52;102072.13;;;10.35;67.73
10510;BME280;5303;53.266;10.410;2023-05-29T02:32:17;102067.69;;;10.33;67.87
10510;BME280;5303;53.266;10.410;2023-05-29T02:34:42;102063.28;;;10.32;67.48
10510;BME280;5303;53.266;10.410;2023-05-29T02:37:08;102065.94;;;10.33;67.53
10510;BME280;5303;53.266;10.410;2023-05-29T02:39:33;102064.19;;;10.32;67.16
10510;BME280;5303;53.266;10.410;2023-05-29T02:41:58;102064.03;;;10.25;67.61
10510;BME280;5303;53.266;10.410;2023-05-29T02:44:24;102068.47;;;10.27;67.26
10510;BME280;5303;53.266;10.410;2023-05-29T02:46:49;102065.63;;;10.18;67.59
10510;BME280;5303;53.266;10.410;2023-05-29T02:49:14;102065.53;;;10.14;67.36
10510;BME280;5303;53.266;10.410;2023-05-29T02:51:39;102068.97;;;10.09;67.82
10510;BME280;5303;53.266;10.410;2023-05-29T02:54:05;102071.53;;;10.05;67.75
10510;BME280;5303;53.266;10.410;2023-05-29T02:56:30;102084.72;;;10.05;68.21
10510;BME280;5303;53.266;10.410;2023-05-29T02:58:55;102075.00;;;10.02;67.79
10510;BME280;5303;53.266;10.410;2023-05-29T03:01:21;102075.03;;;10.04;67.69
10510;BME280;5303;53.266;10.410;2023-05-29T03:03:46;102087.09;;;9.93;67.42
10510;BME280;5303;53.266;10.410;2023-05-29T03:06:11;102077.50;;;9.96;68.14
10510;BME280;5303;53.266;10.410;2023-05-29T03:08:41;102069.63;;;9.98;67.68
10510;BME280;5303;53.266;10.410;2023-05-29T03:11:10;102074.84;;;9.95;67.69
10510;BME280;5303;53.266;10.410;2023-05-29T03:13:36;102068.63;;;9.91;68.11
10510;BME280;5303;53.266;10.410;2023-05-29T03:16:02;102063.19;;;9.84;67.82
10510;BME280;5303;53.266;10.410;2023-05-29T03:18:27;102073.91;;;9.91;67.65
10510;BME280;5303;53.266;10.410;2023-05-29T03:20:53;102072.03;;;9.87;67.90
10510;BME280;5303;53.266;10.410;2023-05-29T03:23:19;102070.34;;;9.91;67.90
10510;BME280;5303;53.266;10.410;2023-05-29T03:25:44;102069.25;;;9.79;67.93
10510;BME280;5303;53.266;10.410;2023-05-29T03:28:10;102070.97;;;9.77;68.30
10510;BME280;5303;53.266;10.410;2023-05-29T03:30:35;102076.19;;;9.74;67.93
10510;BME280;5303;53.266;10.410;2023-05-29T03:33:00;102074.53;;;9.79;67.44
10510;BME280;5303;53.266;10.410;2023-05-29T03:35:29;102078.09;;;9.81;67.94
10510;BME280;5303;53.266;10.410;2023-05-29T03:37:54;102076.25;;;9.77;66.88
10510;BME280;5303;53.266;10.410;2023-05-29T03:40:20;102077.91;;;9.72;67.34
10510;BME280;5303;53.266;10.410;2023-05-29T03:42:45;102088.38;;;9.69;67.10
10510;BME280;5303;53.266;10.410;2023-05-29T03:45:10;102087.63;;;9.75;66.61
10510;BME280;5303;53.266;10.410;2023-05-29T03:47:35;102082.34;;;9.75;67.75
10510;BME280;5303;53.266;10.410;2023-05-29T03:50:01;102081.47;;;9.74;67.42
10510;BME280;5303;53.266;10.410;2023-05-29T03:52:26;102072.75;;;9.78;66.91
10510;BME280;5303;53.266;10.410;2023-05-29T03:54:52;102082.56;;;9.86;66.16
10510;BME280;5303;53.266;10.410;2023-05-29T03:57:17;102082.63;;;9.89;66.07
10510;BME280;5303;53.266;10.410;2023-05-29T03:59:43;102089.03;;;10.01;65.68
10510;BME280;5303;53.266;10.410;2023-05-29T04:02:08;102086.47;;;10.04;65.91
10510;BME280;5303;53.266;10.410;2023-05-29T04:04:33;102091.78;;;10.07;65.87
10510;BME280;5303;53.266;10.410;2023-05-29T04:06:58;102100.94;;;10.25;65.15
10510;BME280;5303;53.266;10.410;2023-05-29T04:09:24;102107.28;;;10.34;64.83
10510;BME280;5303;53.266;10.410;2023-05-29T04:11:49;102113.84;;;10.58;64.30
10510;BME280;5303;53.266;10.410;2023-05-29T04:14:17;102109.97;;;10.87;63.61
10510;BME280;5303;53.266;10.410;2023-05-29T04:16:42;102112.91;;;11.06;63.25
10510;BME280;5303;53.266;10.410;2023-05-29T04:19:07;102113.41;;;11.39;61.05
10510;BME280;5303;53.266;10.410;2023-05-29T04:21:32;102107.78;;;11.77;59.58
10510;BME280;5303;53.266;10.410;2023-05-29T04:23:58;102119.69;;;12.16;59.16
10510;BME280;5303;53.266;10.410;2023-05-29T04:26:23;102126.56;;;12.79;56.97
10510;BME280;5303;53.266;10.410;2023-05-29T04:28:52;102115.63;;;13.51;53.99
10510;BME280;5303;53.266;10.410;2023-05-29T04:31:23;102108.88;;;14.36;50.96
10510;BME280;5303;53.266;10.410;2023-05-29T04:33:51;102113.38;;;14.77;49.31
10510;BME280;5303;53.266;10.410;2023-05-29T04:36:20;102106.31;;;14.95;48.39
10510;BME280;5303;53.266;10.410;2023-05-29T04:38:46;102109.78;;;15.43;47.39
10510;BME280;5303;53.266;10.410;2023-05-29T04:41:12;102111.63;;;14.94;48.20
10510;BME280;5303;53.266;10.410;2023-05-29T04:43:37;102107.78;;;13.77;51.24
10510;BME280;5303;53.266;10.410;2023-05-29T04:46:05;102115.34;;;13.15;53.57
10510;BME280;5303;53.266;10.410;2023-05-29T04:48:32;102118.09;;;12.28;56.27
10510;BME280;5303;53.266;10.410;2023-05-29T04:50:57;102123.88;;;11.95;57.96
10510;BME280;5303;53.266;10.410;2023-05-29T04:53:24;102120.31;;;11.93;58.00
10510;BME280;5303;53.266;10.410;2023-05-29T04:55:50;102125.94;;;12.19;57.34
10510;BME280;5303;53.266;10.410;2023-05-29T04:58:15;102123.94;;;12.85;55.27
10510;BME280;5303;53.266;10.410;2023-05-29T05:00:40;102122.53;;;13.28;54.47
10510;BME280;5303;53.266;10.410;2023-05-29T05:03:06;102125.16;;;13.20;54.37
10510;BME280;5303;53.266;10.410;2023-05-29T05:05:31;102111.50;;;14.22;51.00
10510;BME280;5303;53.266;10.410;2023-05-29T05:07:56;102114.28;;;14.94;49.32
10510;BME280;5303;53.266;10.410;2023-05-29T05:10:21;102108.00;;;15.48;46.98
10510;BME280;5303;53.266;10.410;2023-05-29T05:12:47;102111.19;;;16.36;45.38
10510;BME280;5303;53.266;10.410;2023-05-29T05:15:12;102114.91;;;16.01;45.40
10510;BME280;5303;53.266;10.410;2023-05-29T05:17:37;102116.56;;;16.27;45.08
10510;BME280;5303;53.266;10.410;2023-05-29T05:20:03;102122.59;;;16.53;43.74
10510;BME280;5303;53.266;10.410;2023-05-29T05:22:31;102124.75;;;15.89;45.00
10510;BME280;5303;53.266;10.410;2023-05-29T05:24:56;102123.66;;;16.28;44.52
10510;BME280;5303;53.266;10.410;2023-05-29T05:27:21;102125.47;;;16.26;44.02
10510;BME280;5303;53.266;10.410;2023-05-29T05:29:46;102129.00;;;16.22;44.75
10510;BME280;5303;53.266;10.410;2023-05-29T05:32:12;102131.88;;;15.85;45.68
10510;BME280;5303;53.266;10.410;2023-05-29T05:34:37;102139.97;;;15.16;47.11
10510;BME280;5303;53.266;10.410;2023-05-29T05:37:02;102150.44;;;14.20;49.92
10510;BME280;5303;53.266;10.410;2023-05-29T05:39:28;102149.97;;;13.32;52.82
10510;BME280;5303;53.266;10.410;2023-05-29T05:41:53;102141.50;;;12.75;54.69
10510;BME280;5303;53.266;10.410;2023-05-29T05:44:18;102138.63;;;12.52;55.49
10510;BME280;5303;53.266;10.410;2023-05-29T05:46:44;102141.81;;;12.18;57.39
10510;BME280;5303;53.266;10.410;2023-05-29T05:49:10;102145.56;;;11.71;58.97
10510;BME280;5303;53.266;10.410;2023-05-29T05:51:35;102144.00;;;11.84;58.58
10510;BME280;5303;53.266;10.410;2023-05-29T05:54:00;102148.00;;;11.56;60.03
10510;BME280;5303;53.266;10.410;2023-05-29T05:56:26;102147.78;;;11.42;60.02
10510;BME280;5303;53.266;10.410;2023-05-29T05:58:51;102159.22;;;11.41;60.20
10510;BME280;5303;53.266;10.410;2023-05-29T06:01:17;102162.06;;;11.53;60.73
10510;BME280;5303;53.266;10.410;2023-05-29T06:03:43;102169.81;;;11.41;60.87
10510;BME280;5303;53.266;10.410;2023-05-29T06:06:08;102167.00;;;11.32;60.71
10510;BME280;5303;53.266;10.410;2023-05-29T06:08:35;102166.94;;;11.26;61.44
10510;BME280;5303;53.266;10.410;2023-05-29T06:11:00;102172.16;;;11.23;60.93
10510;BME280;5303;53.266;10.410;2023-05-29T06:13:25;102164.91;;;11.11;61.80
10510;BME280;5303;53.266;10.410;2023-05-29T06:15:50;102166.59;;;11.05;62.37
10510;BME280;5303;53.266;10.410;2023-05-29T06:18:16;102167.69;;;11.19;61.88
10510;BME280;5303;53.266;10.410;2023-05-29T06:20:44;102167.59;;;11.13;62.15
10510;BME280;5303;53.266;10.410;2023-05-29T06:23:09;102158.94;;;11.23;62.08
10510;BME280;5303;53.266;10.410;2023-05-29T06:25:35;102161.84;;;11.38;61.82
10510;BME280;5303;53.266;10.410;2023-05-29T06:28:01;102161.25;;;11.58;60.86
10510;BME280;5303;53.266;10.410;2023-05-29T06:30:27;102154.25;;;11.61;60.93
10510;BME280;5303;53.266;10.410;2023-05-29T06:32:52;102149.94;;;11.68;59.41
10510;BME280;5303;53.266;10.410;2023-05-29T06:35:18;102156.84;;;11.57;59.98
10510;BME280;5303;53.266;10.410;2023-05-29T06:37:45;102158.88;;;11.77;60.59
10510;BME280;5303;53.266;10.410;2023-05-29T06:40:11;102158.00;;;11.77;59.45
10510;BME280;5303;53.266;10.410;2023-05-29T06:42:37;102157.19;;;11.81;58.94
10510;BME280;5303;53.266;10.410;2023-05-29T06:45:02;102150.97;;;11.77;57.78
10510;BME280;5303;53.266;10.410;2023-05-29T06:47:27;102149.13;;;11.75;58.47
10510;BME280;5303;53.266;10.410;2023-05-29T06:49:53;102153.66;;;11.80;58.82
10510;BME280;5303;53.266;10.410;2023-05-29T06:52:18;102155.53;;;11.89;58.24
10510;BME280;5303;53.266;10.410;2023-05-29T06:54:44;102158.25;;;11.95;58.19
10510;BME280;5303;53.266;10.410;2023-05-29T06:57:09;102168.81;;;11.95;57.62
10510;BME280;5303;53.266;10.410;2023-05-29T06:59:35;102166.31;;;12.04;57.62
10510;BME280;5303;53.266;10.410;2023-05-29T07:02:00;102167.13;;;11.97;57.71
10510;BME280;5303;53.266;10.410;2023-05-29T07:04:26;102168.06;;;12.05;57.94
10510;BME280;5303;53.266;10.410;2023-05-29T07:06:51;102160.19;;;12.08;58.25
10510;BME280;5303;53.266;10.410;2023-05-29T07:09:16;102169.16;;;12.21;58.08
10510;BME280;5303;53.266;10.410;2023-05-29T07:11:41;102163.88;;;12.21;57.97
10510;BME280;5303;53.266;10.410;2023-05-29T07:14:08;102157.69;;;12.21;57.82
10510;BME280;5303;53.266;10.410;2023-05-29T07:16:33;102158.72;;;12.35;57.11
10510;BME280;5303;53.266;10.410;2023-05-29T07:18:59;102150.88;;;12.41;57.28
10510;BME280;5303;53.266;10.410;2023-05-29T07:21:24;102153.56;;;12.46;57.23
10510;BME280;5303;53.266;10.410;2023-05-29T07:23:50;102151.75;;;12.42;56.47
10510;BME280;5303;53.266;10.410;2023-05-29T07:26:15;102159.78;;;12.49;57.38
10510;BME280;5303;53.266;10.410;2023-05-29T07:28:41;102154.50;;;12.49;56.20
10510;BME280;5303;53.266;10.410;2023-05-29T07:31:06;102158.84;;;12.44;56.10
10510;BME280;5303;53.266;10.410;2023-05-29T07:33:31;102153.56;;;12.46;55.71
10510;BME280;5303;53.266;10.410;2023-05-29T07:35:57;102156.31;;;12.56;55.54
10510;BME280;5303;53.266;10.410;2023-05-29T07:38:22;102165.22;;;12.64;54.76
10510;BME280;5303;53.266;10.410;2023-05-29T07:40:47;102157.38;;;12.74;54.80
10510;BME280;5303;53.266;10.410;2023-05-29T07:43:12;102160.03;;;12.74;53.95
10510;BME280;5303;53.266;10.410;2023-05-29T07:45:38;102162.78;;;12.86;53.37
10510;BME280;5303;53.266;10.410;2023-05-29T07:48:03;102166.28;;;12.83;53.13
10510;BME280;5303;53.266;10.410;2023-05-29T07:50:28;102177.78;;;12.84;53.27
10510;BME280;5303;53.266;10.410;2023-05-29T07:52:54;102181.38;;;12.89;53.01
10510;BME280;5303;53.266;10.410;2023-05-29T07:55:21;102187.47;;;12.83;53.15
10510;BME280;5303;53.266;10.410;2023-05-29T07:57:46;102186.59;;;12.83;52.10
10510;BME280;5303;53.266;10.410;2023-05-29T08:00:14;102186.63;;;12.86;52.11
10510;BME280;5303;53.266;10.410;2023-05-29T08:02:40;102182.19;;;12.83;52.75
10510;BME280;5303;53.266;10.410;2023-05-29T08:05:05;102191.09;;;12.90;52.48
10510;BME280;5303;53.266;10.410;2023-05-29T08:07:33;102196.50;;;13.02;52.22
10510;BME280;5303;53.266;10.410;2023-05-29T08:09:58;102193.91;;;13.08;53.00
10510;BME280;5303;53.266;10.410;2023-05-29T08:12:23;102195.72;;;13.15;51.33
10510;BME280;5303;53.266;10.410;2023-05-29T08:14:49;102202.91;;;13.24;51.71
10510;BME280;5303;53.266;10.410;2023-05-29T08:17:14;102208.25;;;13.32;51.63
10510;BME280;5303;53.266;10.410;2023-05-29T08:19:40;102193.13;;;13.18;50.33
10510;BME280;5303;53.266;10.410;2023-05-29T08:22:05;102193.06;;;13.17;50.77
10510;BME280;5303;53.266;10.410;2023-05-29T08:24:31;102196.72;;;13.23;51.69
10510;BME280;5303;53.266;10.410;2023-05-29T08:26:56;102183.47;;;13.23;50.38
10510;BME280;5303;53.266;10.410;2023-05-29T08:29:21;102192.28;;;13.22;49.16
10510;BME280;5303;53.266;10.410;2023-05-29T08:31:46;102181.75;;;13.29;50.39
10510;BME280;5303;53.266;10.410;2023-05-29T08:34:12;102176.41;;;13.27;50.63
10510;BME280;5303;53.266;10.410;2023-05-29T08:36:37;102183.59;;;13.39;50.98
10510;BME280;5303;53.266;10.410;2023-05-29T08:39:02;102181.75;;;13.29;51.31
10510;BME280;5303;53.266;10.410;2023-05-29T08:44:03;102185.38;;;13.40;51.04
10510;BME280;5303;53.266;10.410;2023-05-29T08:46:30;102180.16;;;13.58;51.02
10510;BME280;5303;53.266;10.410;2023-05-29T08:48:58;102175.66;;;13.46;49.68
10510;BME280;5303;53.266;10.410;2023-05-29T08:51:26;102176.59;;;13.53;49.35
10510;BME280;5303;53.266;10.410;2023-05-29T08:53:56;102174.91;;;13.66;49.38
10510;BME280;5303;53.266;10.410;2023-05-29T08:56:21;102174.09;;;13.77;48.99
10510;BME280;5303;53.266;10.410;2023-05-29T08:58:48;102175.91;;;13.83;48.58
10510;BME280;5303;53.266;10.410;2023-05-29T09:01:14;102173.25;;;13.88;48.91
10510;BME280;5303;53.266;10.410;2023-05-29T09:03:39;102174.25;;;14.05;47.98
10510;BME280;5303;53.266;10.410;2023-05-29T09:06:07;102178.66;;;14.03;47.94
10510;BME280;5303;53.266;10.410;2023-05-29T09:08:34;102180.44;;;14.04;47.69
10510;BME280;5303;53.266;10.410;2023-05-29T09:10:59;102176.91;;;14.03;44.35
10510;BME280;5303;53.266;10.410;2023-05-29T09:13:25;102185.66;;;13.89;46.92
10510;BME280;5303;53.266;10.410;2023-05-29T09:15:58;102190.06;;;13.87;48.40
10510;BME280;5303;53.266;10.410;2023-05-29T09:18:23;102185.69;;;13.95;48.35
10510;BME280;5303;53.266;10.410;2023-05-29T09:20:48;102183.03;;;13.90;48.59
10510;BME280;5303;53.266;10.410;2023-05-29T09:23:14;102191.84;;;13.88;47.78
10510;BME280;5303;53.266;10.410;2023-05-29T09:25:41;102179.50;;;13.90;47.86
10510;BME280;5303;53.266;10.410;2023-05-29T09:28:09;102182.25;;;14.11;45.99
10510;BME280;5303;53.266;10.410;2023-05-29T09:30:48;102183.13;;;14.10;48.13
10510;BME280;5303;53.266;10.410;2023-05-29T09:33:14;102183.03;;;13.99;47.04
10510;BME280;5303;53.266;10.410;2023-05-29T09:35:48;102182.25;;;14.11;47.68
10510;BME280;5303;53.266;10.410;2023-05-29T09:38:15;102188.44;;;14.13;45.68
10510;BME280;5303;53.266;10.410;2023-05-29T09:40:41;102187.59;;;14.23;44.83
10510;BME280;5303;53.266;10.410;2023-05-29T09:43:17;102192.91;;;14.29;44.96
10510;BME280;5303;53.266;10.410;2023-05-29T09:45:44;102190.31;;;14.41;43.35
10510;BME280;5303;53.266;10.410;2023-05-29T09:48:17;102195.63;;;14.41;42.96
10510;BME280;5303;53.266;10.410;2023-05-29T09:50:43;102197.44;;;14.49;43.84
10510;BME280;5303;53.266;10.410;2023-05-29T09:53:24;102199.22;;;14.59;43.84
10510;BME280;5303;53.266;10.410;2023-05-29T09:55:54;102196.53;;;14.47;43.90
10510;BME280;5303;53.266;10.410;2023-05-29T09:58:21;102198.28;;;14.43;44.89
10510;BME280;5303;53.266;10.410;2023-05-29T10:00:47;102193.91;;;14.53;43.38
10510;BME280;5303;53.266;10.410;2023-05-29T10:03:13;102185.94;;;14.59;44.39
10510;BME280;5303;53.266;10.410;2023-05-29T10:05:43;102181.56;;;14.64;44.06
10510;BME280;5303;53.266;10.410;2023-05-29T10:08:12;102177.13;;;14.66;44.62
10510;BME280;5303;53.266;10.410;2023-05-29T10:10:40;102183.34;;;14.73;43.30
10510;BME280;5303;53.266;10.410;2023-05-29T10:13:10;102181.53;;;14.70;43.91
10510;BME280;5303;53.266;10.410;2023-05-29T10:15:37;102166.53;;;14.72;43.79
10510;BME280;5303;53.266;10.410;2023-05-29T10:18:03;102165.66;;;14.84;43.90
10510;BME280;5303;53.266;10.410;2023-05-29T10:20:31;102160.34;;;14.93;42.79
10510;BME280;5303;53.266;10.410;2023-05-29T10:23:00;102162.09;;;14.95;43.05
10510;BME280;5303;53.266;10.410;2023-05-29T10:25:27;102155.03;;;15.04;42.74
10510;BME280;5303;53.266;10.410;2023-05-29T10:27:56;102164.75;;;15.08;41.78
10510;BME280;5303;53.266;10.410;2023-05-29T10:30:42;102173.63;;;15.04;42.26
10510;BME280;5303;53.266;10.410;2023-05-29T10:33:20;102167.44;;;15.03;42.14
10510;BME280;5303;53.266;10.410;2023-05-29T10:36:14;102169.19;;;15.16;41.40
10510;BME280;5303;53.266;10.410;2023-05-29T10:38:41;102163.88;;;15.33;41.37
10510;BME280;5303;53.266;10.410;2023-05-29T10:43:53;102154.09;;;15.47;41.42
10510;BME280;5303;53.266;10.410;2023-05-29T10:46:18;102154.09;;;15.49;40.96
10510;BME280;5303;53.266;10.410;2023-05-29T10:48:43;102158.50;;;15.51;41.10
10510;BME280;5303;53.266;10.410;2023-05-29T10:51:24;102146.09;;;15.58;42.24
10510;BME280;5303;53.266;10.410;2023-05-29T10:53:49;102149.66;;;15.74;39.96
10510;BME280;5303;53.266;10.410;2023-05-29T10:56:20;102148.75;;;15.69;40.53
10510;BME280;5303;53.266;10.410;2023-05-29T10:58:52;102148.75;;;15.72;40.28
10510;BME280;5303;53.266;10.410;2023-05-29T11:01:21;102154.06;;;15.76;41.14
10510;BME280;5303;53.266;10.410;2023-05-29T11:03:46;102154.03;;;15.82;39.76
10510;BME280;5303;53.266;10.410;2023-05-29T11:06:20;102156.69;;;15.79;40.03
10510;BME280;5303;53.266;10.410;2023-05-29T11:11:15;102152.22;;;15.94;39.34
10510;BME280;5303;53.266;10.410;2023-05-29T11:13:55;102151.31;;;15.93;40.05
10510;BME280;5303;53.266;10.410;2023-05-29T11:18:55;102145.03;;;16.12;39.09
10510;BME280;5303;53.266;10.410;2023-05-29T11:24:05;102137.81;;;16.39;39.16
10510;BME280;5303;53.266;10.410;2023-05-29T11:26:32;102132.53;;;16.24;40.08
10510;BME280;5303;53.266;10.410;2023-05-29T11:29:04;102123.69;;;16.22;40.49
10510;BME280;5303;53.266;10.410;2023-05-29T11:31:34;102127.16;;;16.39;40.15
10510;BME280;5303;53.266;10.410;2023-05-29T11:34:01;102129.78;;;16.43;38.89
10510;BME280;5303;53.266;10.410;2023-05-29T11:36:30;102133.38;;;16.36;39.02
10510;BME280;5303;53.266;10.410;2023-05-29T11:38:56;102127.13;;;16.45;38.90
10510;BME280;5303;53.266;10.410;2023-05-29T11:41:21;102134.19;;;16.49;38.90
10510;BME280;5303;53.266;10.410;2023-05-29T11:44:01;102128.75;;;16.64;35.88
10510;BME280;5303;53.266;10.410;2023-05-29T11:46:28;102130.50;;;16.72;36.66
10510;BME280;5303;53.266;10.410;2023-05-29T11:48:57;102140.28;;;16.76;37.10
10510;BME280;5303;53.266;10.410;2023-05-29T11:51:22;102139.34;;;16.80;36.47
10510;BME280;5303;53.266;10.410;2023-05-29T11:53:48;102129.75;;;16.48;37.79
10510;BME280;5303;53.266;10.410;2023-05-29T11:56:14;102130.63;;;16.50;35.82
10510;BME280;5303;53.266;10.410;2023-05-29T11:58:40;102130.59;;;16.56;36.27
10510;BME280;5303;53.266;10.410;2023-05-29T12:01:07;102121.66;;;16.66;35.96
10510;BME280;5303;53.266;10.410;2023-05-29T12:03:40;102119.84;;;16.72;37.40
10510;BME280;5303;53.266;10.410;2023-05-29T12:06:06;102127.72;;;16.85;37.27
10510;BME280;5303;53.266;10.410;2023-05-29T12:08:32;102121.50;;;16.88;35.93
10510;BME280;5303;53.266;10.410;2023-05-29T12:10:58;102123.25;;;16.90;37.65
10510;BME280;5303;53.266;10.410;2023-05-29T12:13:23;102116.22;;;16.82;37.00
10510;BME280;5303;53.266;10.410;2023-05-29T12:15:52;102113.56;;;16.80;37.79
10510;BME280;5303;53.266;10.410;2023-05-29T12:18:18;102111.69;;;16.93;36.46
10510;BME280;5303;53.266;10.410;2023-05-29T12:20:43;102109.00;;;16.93;34.38
10510;BME280;5303;53.266;10.410;2023-05-29T12:23:09;102107.00;;;17.16;35.94
10510;BME280;5303;53.266;10.410;2023-05-29T12:25:34;102117.69;;;17.18;33.92
10510;BME280;5303;53.266;10.410;2023-05-29T12:28:03;102117.81;;;17.04;34.18
10510;BME280;5303;53.266;10.410;2023-05-29T12:30:29;102117.78;;;17.06;34.41
10510;BME280;5303;53.266;10.410;2023-05-29T12:32:54;102126.59;;;17.15;33.72
10510;BME280;5303;53.266;10.410;2023-05-29T12:35:22;102124.88;;;17.10;34.71
10510;BME280;5303;53.266;10.410;2023-05-29T12:37:59;102122.97;;;17.22;34.84
10510;BME280;5303;53.266;10.410;2023-05-29T12:42:55;102119.22;;;17.42;34.87
10510;BME280;5303;53.266;10.410;2023-05-29T12:45:27;102108.47;;;17.51;34.78
10510;BME280;5303;53.266;10.410;2023-05-29T12:47:55;102105.69;;;17.57;34.80
10510;BME280;5303;53.266;10.410;2023-05-29T12:50:33;102104.88;;;17.52;35.02
10510;BME280;5303;53.266;10.410;2023-05-29T12:53:12;102106.50;;;17.68;34.05
10510;BME280;5303;53.266;10.410;2023-05-29T12:55:39;102098.34;;;17.80;32.76
10510;BME280;5303;53.266;10.410;2023-05-29T12:58:06;102096.59;;;17.76;33.76
10510;BME280;5303;53.266;10.410;2023-05-29T13:00:33;102101.94;;;17.79;33.45
10510;BME280;5303;53.266;10.410;2023-05-29T13:02:59;102090.38;;;17.77;33.83
10510;BME280;5303;53.266;10.410;2023-05-29T13:05:24;102090.41;;;17.74;34.48
10510;BME280;5303;53.266;10.410;2023-05-29T13:07:50;102090.31;;;17.83;35.90
10510;BME280;5303;53.266;10.410;2023-05-29T13:10:16;102087.59;;;17.88;35.24
10510;BME280;5303;53.266;10.410;2023-05-29T13:12:42;102096.44;;;17.92;36.02
10510;BME280;5303;53.266;10.410;2023-05-29T13:15:09;102084.91;;;17.90;33.71